Time;durP1;ratioP1;P1;durP2;ratioP2;P2;SDS_P1;SDS_P2;PMS_P1;PMS_P2;Temp;Humidity;BMP_temperature;BMP_pressure;BME280_temperature;BME280_humidity;BME280_pressure;Samples;Min_cycle;Max_cycle;Signal;HPM_P1;HPM_P2
2023/04/25 00:00:18;;;;;;;12.80;7.78;;;;;;;;;;5002952;28;20018;-56
2023/04/25 00:02:43;;;;;;;11.18;7.97;;;;;;;;;;5003014;28;20486;-57
2023/04/25 00:05:08;;;;;;;13.82;8.15;;;;;;;;;;5003035;28;20524;-55
2023/04/25 00:07:34;;;;;;;11.02;8.00;;;;;;;;;;5002817;28;20032;-58
2023/04/25 00:10:00;;;;;;;14.02;9.60;;;;;;;;;;5002779;28;20018;-57
2023/04/25 00:12:27;;;;;;;11.82;8.40;;;;;;;;;;5002632;28;20101;-59
2023/04/25 00:14:53;;;;;;;15.07;7.82;;;;;;;;;;5034590;28;20026;-57
2023/04/25 00:17:19;;;;;;;10.90;7.93;;;;;;;;;;5000015;28;20040;-57
2023/04/25 00:19:46;;;;;;;12.13;8.27;;;;;;;;;;5002783;28;20552;-57
2023/04/25 00:22:11;;;;;;;12.95;8.27;;;;;;;;;;5034195;28;20359;-57
2023/04/25 00:24:37;;;;;;;12.23;8.25;;;;;;;;;;5002544;28;20033;-55
2023/04/25 00:27:02;;;;;;;10.73;7.47;;;;;;;;;;5003080;28;20029;-58
2023/04/25 00:29:27;;;;;;;11.70;8.18;;;;;;;;;;5002546;28;20490;-53
2023/04/25 00:31:53;;;;;;;14.40;7.75;;;;;;;;;;5002712;28;21122;-58
2023/04/25 00:34:18;;;;;;;10.05;7.55;;;;;;;;;;5002620;28;20481;-58
2023/04/25 00:36:43;;;;;;;12.05;7.82;;;;;;;;;;5002365;28;20172;-56
2023/04/25 00:39:08;;;;;;;13.82;7.90;;;;;;;;;;5002347;28;20018;-53
2023/04/25 00:41:34;;;;;;;13.60;7.50;;;;;;;;;;5000628;28;20399;-59
2023/04/25 00:44:00;;;;;;;9.98;7.20;;;;;;;;;;5002324;28;20029;-51
2023/04/25 00:46:26;;;;;;;10.70;7.07;;;;;;;;;;5002172;28;20093;-56
2023/04/25 00:48:51;;;;;;;10.88;7.53;;;;;;;;;;5002710;28;20030;-58
2023/04/25 00:51:18;;;;;;;11.18;7.35;;;;;;;;;;5033791;28;20545;-58
2023/04/25 00:53:44;;;;;;;9.10;6.53;;;;;;;;;;5002192;28;20030;-58
2023/04/25 00:56:10;;;;;;;11.65;7.63;;;;;;;;;;5002026;28;20384;-58
2023/04/25 00:58:36;;;;;;;9.23;6.82;;;;;;;;;;5002114;28;20033;-59
2023/04/25 01:01:02;;;;;;;9.52;6.78;;;;;;;;;;5002085;28;20025;-57
2023/04/25 01:03:28;;;;;;;8.93;6.20;;;;;;;;;;5032876;28;20032;-58
2023/04/25 01:05:53;;;;;;;9.82;6.47;;;;;;;;;;5000280;28;20703;-55
2023/04/25 01:08:21;;;;;;;9.82;5.72;;;;;;;;;;5001974;28;20022;-57
2023/04/25 01:10:46;;;;;;;10.15;6.18;;;;;;;;;;5002168;28;20041;-52
2023/04/25 01:13:11;;;;;;;6.70;5.05;;;;;;;;;;5033495;28;20053;-56
2023/04/25 01:15:37;;;;;;;10.15;5.40;;;;;;;;;;5002045;28;20026;-58
2023/04/25 01:18:02;;;;;;;7.07;4.65;;;;;;;;;;5001686;28;20022;-57
2023/04/25 01:20:28;;;;;;;10.10;4.97;;;;;;;;;;5001788;28;20029;-56
2023/04/25 01:22:54;;;;;;;10.18;5.57;;;;;;;;;;5001465;28;20037;-58
2023/04/25 01:25:20;;;;;;;7.20;4.57;;;;;;;;;;5033483;28;20053;-59
2023/04/25 01:27:46;;;;;;;8.75;5.30;;;;;;;;;;5001180;28;20061;-55
2023/04/25 01:30:11;;;;;;;7.43;4.80;;;;;;;;;;5001636;28;20474;-59
2023/04/25 01:32:39;;;;;;;8.38;4.57;;;;;;;;;;5001421;28;20729;-55
2023/04/25 01:35:09;;;;;;;7.97;4.35;;;;;;;;;;5000999;28;20057;-54
2023/04/25 01:37:38;;;;;;;6.63;3.70;;;;;;;;;;5001147;28;20026;-58
2023/04/25 01:40:05;;;;;;;4.72;3.70;;;;;;;;;;5001192;28;20018;-55
2023/04/25 01:42:31;;;;;;;5.07;3.67;;;;;;;;;;5032482;28;20038;-55
2023/04/25 01:44:56;;;;;;;6.13;3.95;;;;;;;;;;5001401;28;20026;-56
2023/04/25 01:47:21;;;;;;;4.80;3.22;;;;;;;;;;5000642;28;20509;-56
2023/04/25 01:49:47;;;;;;;4.63;3.90;;;;;;;;;;5001258;28;20049;-59
2023/04/25 01:52:12;;;;;;;6.35;3.45;;;;;;;;;;5000214;28;20413;-59
2023/04/25 01:54:37;;;;;;;4.85;3.35;;;;;;;;;;5001322;28;20230;-55
2023/04/25 01:57:03;;;;;;;3.50;3.20;;;;;;;;;;5000930;28;20026;-57
2023/04/25 01:59:28;;;;;;;3.35;2.90;;;;;;;;;;5001143;28;20065;-57
2023/04/25 02:01:53;;;;;;;3.80;3.08;;;;;;;;;;5000713;28;20183;-55
2023/04/25 02:04:19;;;;;;;3.60;2.78;;;;;;;;;;5000588;28;20072;-58
2023/04/25 02:06:44;;;;;;;5.43;2.92;;;;;;;;;;5000832;28;20355;-54
2023/04/25 02:09:09;;;;;;;3.65;2.60;;;;;;;;;;5000703;28;20026;-53
2023/04/25 02:11:35;;;;;;;3.10;2.40;;;;;;;;;;5000597;28;20381;-59
2023/04/25 02:14:00;;;;;;;3.30;2.75;;;;;;;;;;5000580;28;20164;-54
2023/04/25 02:16:25;;;;;;;2.80;2.42;;;;;;;;;;5000738;28;20083;-58
2023/04/25 02:18:52;;;;;;;2.90;2.17;;;;;;;;;;5000441;28;20396;-58
2023/04/25 02:21:17;;;;;;;3.75;2.58;;;;;;;;;;5000660;28;20024;-57
2023/04/25 02:23:45;;;;;;;2.65;2.30;;;;;;;;;;5000391;28;20462;-58
2023/04/25 02:26:13;;;;;;;3.55;2.70;;;;;;;;;;5000341;28;20040;-58
2023/04/25 02:28:38;;;;;;;3.33;2.20;;;;;;;;;;5000583;28;20092;-58
2023/04/25 02:31:03;;;;;;;3.53;2.30;;;;;;;;;;5000240;28;20034;-57
2023/04/25 02:33:29;;;;;;;2.85;2.40;;;;;;;;;;5000370;28;20488;-57
2023/04/25 02:35:54;;;;;;;3.83;2.20;;;;;;;;;;5031637;28;20022;-55
2023/04/25 02:38:20;;;;;;;4.43;2.78;;;;;;;;;;5000265;28;20033;-58
2023/04/25 02:40:45;;;;;;;5.03;2.15;;;;;;;;;;5000177;28;20424;-57
2023/04/25 02:43:10;;;;;;;4.63;2.22;;;;;;;;;;5000319;28;20494;-55
2023/04/25 02:45:36;;;;;;;2.30;2.00;;;;;;;;;;4999778;28;20061;-53
2023/04/25 02:48:02;;;;;;;3.50;2.40;;;;;;;;;;4999988;28;20022;-56
2023/04/25 02:50:27;;;;;;;2.33;2.10;;;;;;;;;;5000075;28;20061;-56
2023/04/25 02:52:52;;;;;;;3.40;2.17;;;;;;;;;;5000158;28;20049;-54
2023/04/25 02:55:18;;;;;;;3.60;2.53;;;;;;;;;;5000074;28;20447;-57
2023/04/25 02:57:43;;;;;;;3.17;2.53;;;;;;;;;;4999727;28;20033;-57
2023/04/25 03:00:08;;;;;;;2.85;2.47;;;;;;;;;;4997401;28;20041;-55
2023/04/25 03:02:34;;;;;;;3.83;2.75;;;;;;;;;;4999809;28;20026;-55
2023/04/25 03:04:59;;;;;;;3.83;2.60;;;;;;;;;;5003911;28;20503;-52
2023/04/25 03:07:24;;;;;;;3.45;2.83;;;;;;;;;;5018754;28;20121;-55
2023/04/25 03:09:50;;;;;;;7.25;2.83;;;;;;;;;;5003810;28;20085;-55
2023/04/25 03:12:15;;;;;;;4.57;2.88;;;;;;;;;;5003554;28;20105;-58
2023/04/25 03:14:40;;;;;;;3.53;2.63;;;;;;;;;;5004057;28;20026;-54
2023/04/25 03:17:06;;;;;;;3.28;2.45;;;;;;;;;;5002192;28;20064;-57
2023/04/25 03:19:31;;;;;;;4.45;3.20;;;;;;;;;;5003980;28;20026;-56
2023/04/25 03:21:56;;;;;;;8.05;3.20;;;;;;;;;;5003630;28;20384;-53
2023/04/25 03:24:21;;;;;;;5.43;2.97;;;;;;;;;;5003444;28;20826;-56
2023/04/25 03:26:47;;;;;;;5.57;3.00;;;;;;;;;;5035453;28;20041;-57
2023/04/25 03:29:12;;;;;;;5.75;3.17;;;;;;;;;;5003323;28;20029;-54
2023/04/25 03:31:37;;;;;;;4.43;3.20;;;;;;;;;;5035137;28;20075;-53
2023/04/25 03:34:03;;;;;;;4.30;3.38;;;;;;;;;;5003424;28;20105;-58
2023/04/25 03:36:28;;;;;;;4.05;3.13;;;;;;;;;;5003164;28;20087;-57
2023/04/25 03:38:53;;;;;;;5.57;2.80;;;;;;;;;;5003381;28;20440;-57
2023/04/25 03:41:19;;;;;;;6.95;3.90;;;;;;;;;;5003233;28;20478;-56
2023/04/25 03:43:44;;;;;;;4.47;3.45;;;;;;;;;;5003027;28;20026;-57
2023/04/25 03:46:09;;;;;;;6.22;3.60;;;;;;;;;;5003305;28;20057;-53
2023/04/25 03:48:35;;;;;;;6.45;3.53;;;;;;;;;;5002935;28;20021;-57
2023/04/25 03:51:00;;;;;;;4.35;3.53;;;;;;;;;;5034756;28;20157;-59
2023/04/25 03:53:25;;;;;;;9.95;3.75;;;;;;;;;;5034493;28;20026;-57
2023/04/25 03:55:51;;;;;;;6.30;4.18;;;;;;;;;;5002736;28;20060;-58
2023/04/25 03:58:16;;;;;;;5.57;3.95;;;;;;;;;;5003102;28;20053;-57
2023/04/25 04:00:42;;;;;;;7.10;3.67;;;;;;;;;;5034437;28;20393;-58
2023/04/25 04:03:07;;;;;;;5.85;3.50;;;;;;;;;;5001743;28;20033;-59
2023/04/25 04:05:33;;;;;;;6.05;4.07;;;;;;;;;;5002918;28;20022;-55
2023/04/25 04:07:58;;;;;;;4.95;3.70;;;;;;;;;;5002769;28;20413;-58
2023/04/25 04:10:23;;;;;;;6.15;4.13;;;;;;;;;;5002400;28;20107;-58
2023/04/25 04:12:49;;;;;;;6.45;3.60;;;;;;;;;;5002857;28;20229;-58
2023/04/25 04:15:14;;;;;;;5.18;3.72;;;;;;;;;;5001731;28;20106;-57
2023/04/25 04:17:40;;;;;;;5.55;3.88;;;;;;;;;;5002458;28;20036;-57
2023/04/25 04:20:06;;;;;;;4.90;3.63;;;;;;;;;;5001327;28;20516;-55
2023/04/25 04:22:32;;;;;;;5.55;3.70;;;;;;;;;;5033894;28;20506;-56
2023/04/25 04:24:57;;;;;;;7.82;3.80;;;;;;;;;;5002421;28;20029;-60
2023/04/25 04:27:23;;;;;;;4.78;3.78;;;;;;;;;;5002163;28;20521;-55
2023/04/25 04:29:48;;;;;;;6.28;4.18;;;;;;;;;;5002435;28;20531;-57
2023/04/25 04:32:14;;;;;;;4.68;3.53;;;;;;;;;;5033776;28;20492;-58
2023/04/25 04:34:41;;;;;;;7.85;3.78;;;;;;;;;;5002476;28;20021;-59
2023/04/25 04:37:06;;;;;;;5.10;3.70;;;;;;;;;;5033452;28;20390;-57
2023/04/25 04:39:32;;;;;;;7.40;4.47;;;;;;;;;;5001965;28;20022;-57
2023/04/25 04:41:57;;;;;;;6.18;4.30;;;;;;;;;;5001956;28;20111;-59
2023/04/25 04:44:23;;;;;;;7.03;3.78;;;;;;;;;;5001993;28;20111;-59
2023/04/25 04:46:48;;;;;;;4.93;3.40;;;;;;;;;;5001788;28;20569;-57
2023/04/25 04:49:14;;;;;;;7.88;3.78;;;;;;;;;;5001791;28;20026;-59
2023/04/25 04:51:40;;;;;;;6.25;4.13;;;;;;;;;;5001842;28;20474;-58
2023/04/25 04:54:05;;;;;;;5.78;4.35;;;;;;;;;;5001349;28;20037;-55
2023/04/25 04:56:30;;;;;;;7.97;3.58;;;;;;;;;;5001798;28;20454;-55
2023/04/25 04:58:56;;;;;;;4.88;3.78;;;;;;;;;;5001552;28;20385;-58
2023/04/25 05:01:22;;;;;;;4.95;3.85;;;;;;;;;;5001704;28;20021;-53
2023/04/25 05:03:47;;;;;;;5.10;4.13;;;;;;;;;;5000130;28;20029;-60
2023/04/25 05:06:12;;;;;;;5.30;3.95;;;;;;;;;;5001599;28;20338;-57
2023/04/25 05:08:37;;;;;;;4.68;3.47;;;;;;;;;;5001302;28;20061;-59
2023/04/25 05:11:03;;;;;;;7.63;4.15;;;;;;;;;;5001235;28;20386;-59
2023/04/25 05:13:28;;;;;;;10.27;3.85;;;;;;;;;;5001941;28;20101;-58
2023/04/25 05:15:53;;;;;;;6.85;4.18;;;;;;;;;;5001111;28;20524;-57
2023/04/25 05:18:19;;;;;;;6.63;3.85;;;;;;;;;;5001680;28;20131;-57
2023/04/25 05:20:44;;;;;;;15.95;4.25;;;;;;;;;;5000903;28;20469;-58
2023/04/25 05:23:09;;;;;;;7.00;3.60;;;;;;;;;;5001350;28;20050;-56
2023/04/25 05:25:35;;;;;;;5.90;4.05;;;;;;;;;;5001277;28;20107;-58
2023/04/25 05:28:00;;;;;;;7.57;4.13;;;;;;;;;;5031631;28;20484;-59
2023/04/25 05:30:25;;;;;;;6.78;4.15;;;;;;;;;;5001159;28;20022;-58
2023/04/25 05:32:51;;;;;;;6.78;4.25;;;;;;;;;;4999816;28;20712;-59
2023/04/25 05:35:16;;;;;;;5.47;4.35;;;;;;;;;;5003112;28;20053;-60
2023/04/25 05:39:18;;;;;;;689.42;337.65;;;;;;;;;;5060960;28;20384;-59
2023/04/25 05:41:43;;;;;;;68.28;46.47;;;;;;;;;;5062037;28;20047;-60
2023/04/25 05:44:09;;;;;;;257.65;181.38;;;;;;;;;;5043710;28;20063;-58
2023/04/25 05:46:34;;;;;;;179.20;145.40;;;;;;;;;;5041932;28;20029;-58
2023/04/25 05:48:59;;;;;;;28.73;26.05;;;;;;;;;;5018859;28;20062;-61
2023/04/25 05:51:25;;;;;;;258.85;181.75;;;;;;;;;;5018249;28;20117;-62
2023/04/25 05:53:51;;;;;;;415.08;187.60;;;;;;;;;;5003396;28;20044;-61
2023/04/25 05:56:16;;;;;;;287.60;241.23;;;;;;;;;;5021898;28;20022;-68
2023/04/25 05:58:41;;;;;;;398.70;198.48;;;;;;;;;;5016438;28;20449;-64
2023/04/25 06:01:07;;;;;;;595.25;294.65;;;;;;;;;;5018717;28;20043;-67
2023/04/25 06:03:32;;;;;;;157.32;61.85;;;;;;;;;;5007979;28;20501;-65
2023/04/25 06:05:57;;;;;;;138.43;67.40;;;;;;;;;;5005951;28;20867;-63
2023/04/25 06:08:23;;;;;;;9.27;3.85;;;;;;;;;;5004225;28;20129;-57
2023/04/25 06:10:48;;;;;;;10.27;4.30;;;;;;;;;;5007996;28;20100;-58
2023/04/25 06:13:13;;;;;;;5.10;3.35;;;;;;;;;;5008389;28;20366;-56
2023/04/25 06:15:39;;;;;;;11.55;4.22;;;;;;;;;;4996594;28;20509;-55
2023/04/25 06:18:04;;;;;;;6.90;3.97;;;;;;;;;;5002634;28;20466;-59
2023/04/25 06:20:29;;;;;;;9.02;4.22;;;;;;;;;;5029411;28;20040;-60
2023/04/25 06:22:55;;;;;;;62.40;56.97;;;;;;;;;;5036836;28;20786;-58
2023/04/25 06:25:20;;;;;;;333.45;173.85;;;;;;;;;;5028744;28;20040;-60
2023/04/25 06:27:45;;;;;;;104.28;36.20;;;;;;;;;;5033145;28;20048;-56
2023/04/25 06:30:11;;;;;;;356.60;236.27;;;;;;;;;;5028693;28;20776;-58
2023/04/25 06:32:37;;;;;;;194.23;173.68;;;;;;;;;;5022960;28;20032;-59
2023/04/25 06:35:03;;;;;;;97.50;88.40;;;;;;;;;;5026086;28;20109;-59
2023/04/25 06:37:28;;;;;;;37.83;34.60;;;;;;;;;;5022446;28;20042;-59
2023/04/25 06:39:54;;;;;;;6.53;3.20;;;;;;;;;;5026454;28;20028;-58
2023/04/25 06:42:19;;;;;;;9.70;3.53;;;;;;;;;;5039606;28;20687;-58
2023/04/25 06:44:44;;;;;;;3.53;2.00;;;;;;;;;;5025257;28;20775;-56
2023/04/25 06:47:10;;;;;;;6.03;2.65;;;;;;;;;;5025594;28;20109;-57
2023/04/25 06:49:35;;;;;;;3.45;2.20;;;;;;;;;;5016119;28;20026;-58
2023/04/25 06:52:00;;;;;;;3.65;1.85;;;;;;;;;;5017843;28;20575;-57
2023/04/25 06:54:27;;;;;;;2.85;2.20;;;;;;;;;;5024359;28;20122;-58
2023/04/25 06:56:52;;;;;;;3.47;1.92;;;;;;;;;;5020217;28;20041;-60
2023/04/25 06:59:18;;;;;;;2.20;1.90;;;;;;;;;;5016042;28;20099;-58
2023/04/25 07:01:43;;;;;;;3.58;2.10;;;;;;;;;;5019424;28;20025;-59
2023/04/25 07:04:08;;;;;;;5.47;1.90;;;;;;;;;;5007653;28;20029;-59
2023/04/25 07:06:34;;;;;;;2.92;1.73;;;;;;;;;;5022235;28;20146;-53
2023/04/25 07:08:59;;;;;;;7.43;2.42;;;;;;;;;;5011277;28;20037;-59
2023/04/25 07:11:24;;;;;;;4.35;2.28;;;;;;;;;;5020474;28;20025;-55
2023/04/25 07:13:50;;;;;;;5.35;2.00;;;;;;;;;;5021108;28;20021;-56
2023/04/25 07:16:15;;;;;;;2.58;1.73;;;;;;;;;;5014524;28;20037;-60
2023/04/25 07:18:41;;;;;;;4.15;2.35;;;;;;;;;;5014522;28;20431;-58
2023/04/25 07:21:06;;;;;;;3.92;2.50;;;;;;;;;;5014632;28;20025;-56
2023/04/25 07:23:31;;;;;;;6.47;2.92;;;;;;;;;;5045701;28;20477;-57
2023/04/25 07:25:57;;;;;;;2.47;2.00;;;;;;;;;;5016803;28;20033;-56
2023/04/25 07:28:22;;;;;;;4.05;2.65;;;;;;;;;;5011552;28;20477;-55
2023/04/25 07:30:47;;;;;;;4.55;2.90;;;;;;;;;;5019765;28;20434;-54
2023/04/25 07:33:13;;;;;;;4.72;3.00;;;;;;;;;;5011312;28;20022;-57
2023/04/25 07:35:38;;;;;;;4.47;3.03;;;;;;;;;;5020526;28;20072;-58
2023/04/25 07:38:03;;;;;;;4.90;3.33;;;;;;;;;;5015731;28;20054;-59
2023/04/25 07:40:29;;;;;;;9.25;3.65;;;;;;;;;;5017277;28;20037;-59
2023/04/25 07:42:55;;;;;;;3.85;2.97;;;;;;;;;;5012268;28;20018;-59
2023/04/25 07:45:20;;;;;;;4.32;3.28;;;;;;;;;;5011749;28;20415;-57
2023/04/25 07:47:45;;;;;;;6.53;3.13;;;;;;;;;;5012538;28;20364;-61
2023/04/25 07:50:11;;;;;;;9.55;3.17;;;;;;;;;;5008056;28;20366;-60
2023/04/25 07:52:36;;;;;;;5.53;3.38;;;;;;;;;;5010374;28;20044;-60
2023/04/25 07:55:01;;;;;;;7.40;3.75;;;;;;;;;;5058763;28;20407;-60
2023/04/25 07:57:26;;;;;;;3.90;3.30;;;;;;;;;;5061998;28;20063;-62
2023/04/25 07:59:52;;;;;;;6.15;2.85;;;;;;;;;;5061267;28;20028;-61
2023/04/25 08:02:17;;;;;;;2.90;2.63;;;;;;;;;;5018423;28;20123;-61
2023/04/25 08:04:43;;;;;;;4.93;3.40;;;;;;;;;;5047890;28;20044;-61
2023/04/25 08:07:08;;;;;;;3.28;2.95;;;;;;;;;;5051442;28;20037;-59
2023/04/25 08:09:35;;;;;;;8.07;3.53;;;;;;;;;;5050029;28;20036;-62
2023/04/25 08:12:01;;;;;;;6.47;2.80;;;;;;;;;;5047660;28;20506;-62
2023/04/25 08:14:27;;;;;;;6.68;3.30;;;;;;;;;;5047667;28;20432;-59
2023/04/25 08:16:52;;;;;;;3.53;3.00;;;;;;;;;;5051703;28;20028;-60
2023/04/25 08:19:17;;;;;;;8.55;3.38;;;;;;;;;;5048508;28;20029;-61
2023/04/25 08:21:42;;;;;;;5.60;3.00;;;;;;;;;;5051114;28;20447;-63
2023/04/25 08:24:08;;;;;;;3.30;2.50;;;;;;;;;;5047817;28;20120;-61
2023/04/25 08:26:34;;;;;;;7.20;2.80;;;;;;;;;;5020161;28;20037;-61
2023/04/25 08:28:59;;;;;;;5.82;3.00;;;;;;;;;;5013380;28;20324;-59
2023/04/25 08:31:25;;;;;;;3.85;2.70;;;;;;;;;;5009234;28;20324;-63
2023/04/25 08:33:51;;;;;;;4.95;2.53;;;;;;;;;;5017491;28;20466;-61
2023/04/25 08:36:17;;;;;;;8.07;2.90;;;;;;;;;;5010643;28;20025;-60
2023/04/25 08:38:42;;;;;;;2.75;2.22;;;;;;;;;;5010637;28;20057;-61
2023/04/25 08:41:08;;;;;;;4.13;2.20;;;;;;;;;;5009280;28;20026;-61
2023/04/25 08:43:34;;;;;;;3.55;2.20;;;;;;;;;;5017329;28;20053;-62
2023/04/25 08:46:00;;;;;;;4.38;2.00;;;;;;;;;;5016717;28;20032;-62
2023/04/25 08:48:27;;;;;;;2.92;1.85;;;;;;;;;;5019253;28;20025;-61
2023/04/25 08:50:53;;;;;;;1.70;1.58;;;;;;;;;;5020671;28;20277;-60
2023/04/25 08:53:22;;;;;;;4.57;2.22;;;;;;;;;;5013201;28;20599;-60
2023/04/25 08:55:48;;;;;;;2.38;1.70;;;;;;;;;;5011382;28;20026;-61
2023/04/25 08:58:14;;;;;;;6.05;1.95;;;;;;;;;;5011223;28;20037;-62
2023/04/25 09:00:39;;;;;;;2.58;1.55;;;;;;;;;;5010165;28;20029;-60
2023/04/25 09:03:05;;;;;;;4.55;2.17;;;;;;;;;;5019590;28;20029;-63
2023/04/25 09:05:32;;;;;;;1.85;1.70;;;;;;;;;;5009122;28;20024;-61
2023/04/25 09:07:58;;;;;;;1.60;1.50;;;;;;;;;;5010283;28;20026;-62
2023/04/25 09:10:23;;;;;;;3.08;1.67;;;;;;;;;;5013264;28;20470;-61
2023/04/25 09:13:04;;;;;;;1.63;1.43;;;;;;;;;;5009645;28;20083;-61
2023/04/25 09:15:30;;;;;;;2.58;1.40;;;;;;;;;;5007868;28;20251;-62
2023/04/25 09:17:58;;;;;;;4.63;1.63;;;;;;;;;;5010535;28;20677;-60
2023/04/25 09:20:24;;;;;;;7.40;1.60;;;;;;;;;;5024059;28;20030;-62
2023/04/25 09:23:00;;;;;;;2.88;1.58;;;;;;;;;;5025027;28;20076;-62
2023/04/25 09:25:25;;;;;;;4.32;1.38;;;;;;;;;;5021732;28;20226;-63
2023/04/25 09:27:52;;;;;;;1.77;1.52;;;;;;;;;;5007352;28;20632;-62
2023/04/25 09:30:17;;;;;;;1.20;1.10;;;;;;;;;;5013608;28;20021;-62
2023/04/25 09:32:43;;;;;;;5.68;1.88;;;;;;;;;;5024928;28;20033;-62
2023/04/25 09:35:09;;;;;;;3.40;1.80;;;;;;;;;;5017011;28;20025;-62
2023/04/25 09:37:35;;;;;;;6.15;2.05;;;;;;;;;;5018603;28;20810;-63
2023/04/25 09:40:05;;;;;;;3.72;1.73;;;;;;;;;;5014304;28;20742;-62
2023/04/25 09:42:31;;;;;;;4.05;1.98;;;;;;;;;;5012651;28;20740;-60
2023/04/25 09:44:57;;;;;;;5.05;2.05;;;;;;;;;;5021100;28;20029;-62
2023/04/25 09:47:23;;;;;;;2.72;1.55;;;;;;;;;;5019847;28;20061;-62
2023/04/25 09:49:49;;;;;;;5.65;1.80;;;;;;;;;;5008588;28;20034;-62
2023/04/25 09:52:19;;;;;;;5.30;1.95;;;;;;;;;;5015308;28;20200;-62
2023/04/25 09:54:45;;;;;;;3.30;1.35;;;;;;;;;;5033316;28;20017;-61
2023/04/25 09:57:11;;;;;;;4.03;1.33;;;;;;;;;;5025872;28;20095;-63
2023/04/25 09:59:38;;;;;;;4.43;2.25;;;;;;;;;;5023388;28;20499;-61
2023/04/25 10:02:04;;;;;;;3.55;1.52;;;;;;;;;;5026393;28;20044;-62
2023/04/25 10:04:32;;;;;;;2.80;1.42;;;;;;;;;;5026807;28;20083;-62
2023/04/25 10:06:57;;;;;;;2.10;1.60;;;;;;;;;;5018128;28;20519;-60
2023/04/25 10:09:25;;;;;;;3.08;1.42;;;;;;;;;;5023245;28;20072;-64
2023/04/25 10:11:50;;;;;;;6.03;1.63;;;;;;;;;;5021500;28;20461;-60
2023/04/25 10:14:16;;;;;;;2.90;1.40;;;;;;;;;;5026405;28;20038;-59
2023/04/25 10:16:42;;;;;;;3.10;1.45;;;;;;;;;;5024666;28;20025;-61
2023/04/25 10:19:08;;;;;;;2.85;1.65;;;;;;;;;;5025860;28;20552;-61
2023/04/25 10:21:33;;;;;;;2.75;1.58;;;;;;;;;;5027907;28;20099;-61
2023/04/25 10:23:59;;;;;;;7.82;2.70;;;;;;;;;;5026598;28;20428;-59
2023/04/25 10:26:24;;;;;;;2.75;1.90;;;;;;;;;;5035646;28;20386;-58
2023/04/25 10:28:57;;;;;;;4.97;2.13;;;;;;;;;;5030039;28;20021;-60
2023/04/25 10:31:23;;;;;;;5.32;1.83;;;;;;;;;;5028227;28;20017;-59
2023/04/25 10:33:48;;;;;;;4.55;1.83;;;;;;;;;;5018916;28;20466;-60
2023/04/25 10:36:14;;;;;;;4.45;1.98;;;;;;;;;;5018139;28;20035;-58
2023/04/25 10:38:41;;;;;;;8.00;2.25;;;;;;;;;;5026278;28;20045;-62
2023/04/25 10:41:10;;;;;;;7.35;1.95;;;;;;;;;;5019428;28;20033;-61
2023/04/25 10:43:39;;;;;;;2.05;1.83;;;;;;;;;;5008745;28;20525;-62
2023/04/25 10:46:23;;;;;;;3.40;1.88;;;;;;;;;;5011786;28;20121;-62
2023/04/25 10:48:55;;;;;;;7.05;2.10;;;;;;;;;;5007230;28;20389;-61
2023/04/25 10:51:23;;;;;;;2.80;2.03;;;;;;;;;;5010008;28;20044;-61
2023/04/25 10:53:55;;;;;;;3.30;2.17;;;;;;;;;;5007658;28;20026;-62
2023/04/25 10:56:21;;;;;;;3.90;2.35;;;;;;;;;;5007646;28;20243;-60
2023/04/25 10:58:47;;;;;;;5.65;2.30;;;;;;;;;;5010892;28;21295;-61
2023/04/25 11:01:13;;;;;;;2.35;2.08;;;;;;;;;;5008702;28;20022;-60
2023/04/25 11:03:43;;;;;;;2.58;1.80;;;;;;;;;;5007449;28;20029;-61
2023/04/25 11:06:18;;;;;;;4.05;2.20;;;;;;;;;;5012802;28;20109;-64
2023/04/25 11:08:50;;;;;;;5.07;1.75;;;;;;;;;;5004710;28;20021;-58
2023/04/25 11:11:17;;;;;;;11.13;2.22;;;;;;;;;;5004013;28;20030;-57
2023/04/25 11:13:42;;;;;;;10.43;2.90;;;;;;;;;;5045911;28;20044;-60
2023/04/25 11:16:07;;;;;;;8.38;2.72;;;;;;;;;;5019473;28;20037;-60
2023/04/25 11:18:34;;;;;;;3.13;1.80;;;;;;;;;;5004289;28;20033;-60
2023/04/25 11:20:59;;;;;;;7.18;2.53;;;;;;;;;;5015307;28;20095;-61
2023/04/25 11:23:26;;;;;;;8.20;2.63;;;;;;;;;;5006715;28;20474;-58
2023/04/25 11:25:52;;;;;;;8.30;2.15;;;;;;;;;;5003099;28;20113;-61
2023/04/25 11:28:22;;;;;;;8.35;1.83;;;;;;;;;;5010866;28;20112;-61
2023/04/25 11:30:50;;;;;;;12.38;2.85;;;;;;;;;;5015085;28;20113;-58
2023/04/25 11:33:16;;;;;;;3.57;1.90;;;;;;;;;;5017424;28;20037;-62
2023/04/25 11:35:41;;;;;;;4.80;2.30;;;;;;;;;;5039930;28;20013;-62
2023/04/25 11:38:06;;;;;;;5.40;2.33;;;;;;;;;;5037971;28;20096;-62
2023/04/25 11:40:32;;;;;;;2.83;1.90;;;;;;;;;;5021426;28;20496;-63
2023/04/25 11:42:59;;;;;;;3.78;1.80;;;;;;;;;;5017754;28;20025;-63
2023/04/25 11:45:25;;;;;;;4.20;2.13;;;;;;;;;;5021257;28;20021;-62
2023/04/25 11:47:50;;;;;;;3.42;1.92;;;;;;;;;;5023191;28;20500;-62
2023/04/25 11:50:15;;;;;;;13.93;2.42;;;;;;;;;;5021724;28;20025;-61
2023/04/25 11:52:45;;;;;;;8.18;2.20;;;;;;;;;;5025160;28;20025;-61
2023/04/25 11:55:10;;;;;;;;;;;;;;;;;;5005936;28;20053;-62
2023/04/25 11:57:37;;;;;;;11.60;2.78;;;;;;;;;;5016932;28;19971;-62
2023/04/25 12:00:09;;;;;;;12.55;2.95;;;;;;;;;;5017419;28;20052;-62
2023/04/25 12:02:36;;;;;;;13.32;2.97;;;;;;;;;;5021808;28;20029;-62
2023/04/25 12:05:01;;;;;;;14.38;3.22;;;;;;;;;;5021033;28;20022;-62
2023/04/25 12:07:30;;;;;;;3.65;1.60;;;;;;;;;;5014580;28;20030;-62
2023/04/25 12:09:55;;;;;;;8.85;2.22;;;;;;;;;;5019361;28;20351;-63
2023/04/25 12:12:21;;;;;;;3.20;1.50;;;;;;;;;;5016796;28;20039;-62
2023/04/25 12:14:48;;;;;;;1.70;1.30;;;;;;;;;;5019780;28;20021;-62
2023/04/25 12:17:13;;;;;;;1.20;1.10;;;;;;;;;;5001681;28;20022;-62
2023/04/25 12:19:43;;;;;;;4.13;1.53;;;;;;;;;;5012696;28;20024;-62
2023/04/25 12:22:19;;;;;;;5.63;1.55;;;;;;;;;;5011775;28;20287;-62
2023/04/25 12:24:45;;;;;;;2.65;1.42;;;;;;;;;;5008983;28;20045;-61
2023/04/25 12:27:10;;;;;;;2.50;1.25;;;;;;;;;;5024667;28;20068;-63
2023/04/25 12:29:35;;;;;;;2.63;1.07;;;;;;;;;;5013626;28;20053;-62
2023/04/25 12:32:03;;;;;;;4.00;1.27;;;;;;;;;;5011335;28;20786;-62
2023/04/25 12:34:28;;;;;;;3.63;1.10;;;;;;;;;;5003869;28;20022;-63
2023/04/25 12:36:54;;;;;;;4.40;1.58;;;;;;;;;;5021693;28;20028;-64
2023/04/25 12:39:21;;;;;;;1.95;1.00;;;;;;;;;;5012655;28;20425;-64
2023/04/25 12:41:47;;;;;;;3.50;1.13;;;;;;;;;;5010559;28;20393;-61
2023/04/25 12:44:12;;;;;;;1.77;1.00;;;;;;;;;;5022064;28;20324;-64
2023/04/25 12:46:38;;;;;;;4.38;1.05;;;;;;;;;;5012887;28;20026;-63
2023/04/25 12:49:03;;;;;;;2.53;1.00;;;;;;;;;;5039730;28;20449;-62
2023/04/25 12:51:29;;;;;;;1.75;1.13;;;;;;;;;;5014239;28;20033;-62
2023/04/25 12:53:55;;;;;;;4.20;1.27;;;;;;;;;;5003248;28;20030;-62
2023/04/25 12:56:20;;;;;;;3.38;0.90;;;;;;;;;;5016158;28;20074;-62
2023/04/25 12:58:46;;;;;;;0.63;0.63;;;;;;;;;;5018170;28;20050;-62
2023/04/25 13:01:12;;;;;;;7.35;1.48;;;;;;;;;;5008675;28;20691;-64
2023/04/25 13:03:37;;;;;;;7.60;1.63;;;;;;;;;;5017322;28;20381;-64
2023/04/25 13:06:03;;;;;;;2.60;0.98;;;;;;;;;;5016778;28;20022;-63
2023/04/25 13:08:28;;;;;;;2.03;0.90;;;;;;;;;;5017642;28;20148;-62
2023/04/25 13:10:53;;;;;;;2.55;0.93;;;;;;;;;;5014915;28;20049;-63
2023/04/25 13:13:18;;;;;;;8.73;1.00;;;;;;;;;;5010490;28;20566;-63
2023/04/25 13:15:44;;;;;;;2.60;0.80;;;;;;;;;;5015861;28;20247;-62
2023/04/25 13:18:09;;;;;;;0.73;0.47;;;;;;;;;;5024844;28;20034;-63
2023/04/25 13:20:35;;;;;;;4.40;1.13;;;;;;;;;;5008911;28;20568;-63
2023/04/25 13:23:00;;;;;;;3.53;0.80;;;;;;;;;;5011209;28;20014;-63
2023/04/25 13:25:26;;;;;;;1.90;0.73;;;;;;;;;;5007883;28;20049;-63
2023/04/25 13:27:51;;;;;;;3.13;0.75;;;;;;;;;;5009059;28;20033;-63
2023/04/25 13:30:16;;;;;;;3.50;0.85;;;;;;;;;;5023867;28;21188;-63
2023/04/25 13:32:42;;;;;;;1.48;0.55;;;;;;;;;;5013113;28;20561;-63
2023/04/25 13:35:08;;;;;;;0.43;0.43;;;;;;;;;;5012320;28;20037;-64
2023/04/25 13:37:34;;;;;;;0.40;0.40;;;;;;;;;;5021850;28;20065;-64
2023/04/25 13:40:04;;;;;;;6.50;1.08;;;;;;;;;;5020325;28;20025;-63
2023/04/25 13:42:30;;;;;;;0.82;0.40;;;;;;;;;;5012166;28;20065;-61
2023/04/25 13:44:55;;;;;;;4.13;0.70;;;;;;;;;;5011071;28;20061;-62
2023/04/25 13:47:21;;;;;;;1.77;0.47;;;;;;;;;;5009694;28;20033;-62
2023/04/25 13:49:47;;;;;;;3.47;0.95;;;;;;;;;;5022126;28;20025;-63
2023/04/25 13:52:12;;;;;;;1.50;0.60;;;;;;;;;;5012685;28;20025;-63
2023/04/25 13:54:37;;;;;;;4.72;0.55;;;;;;;;;;5032171;28;20432;-65
2023/04/25 13:57:02;;;;;;;2.73;0.67;;;;;;;;;;5016189;28;20017;-61
2023/04/25 13:59:28;;;;;;;2.55;0.65;;;;;;;;;;5011152;28;20421;-62
2023/04/25 14:01:53;;;;;;;3.60;0.77;;;;;;;;;;5008519;28;20749;-62
2023/04/25 14:04:18;;;;;;;1.73;0.60;;;;;;;;;;5024078;28;20496;-61
2023/04/25 14:06:44;;;;;;;3.50;1.02;;;;;;;;;;5027896;28;20052;-62
2023/04/25 14:09:10;;;;;;;1.98;0.60;;;;;;;;;;5011918;28;20036;-58
2023/04/25 14:11:38;;;;;;;4.85;1.20;;;;;;;;;;5015261;28;20018;-62
2023/04/25 14:14:03;;;;;;;1.17;0.80;;;;;;;;;;5020849;28;20429;-60
2023/04/25 14:16:30;;;;;;;0.85;0.70;;;;;;;;;;5012781;28;20036;-61
2023/04/25 14:18:55;;;;;;;6.78;1.50;;;;;;;;;;5017270;28;20109;-63
2023/04/25 14:21:20;;;;;;;3.75;1.25;;;;;;;;;;5014897;28;20108;-63
2023/04/25 14:23:46;;;;;;;2.15;0.80;;;;;;;;;;5025011;28;20025;-61
2023/04/25 14:26:12;;;;;;;1.95;0.73;;;;;;;;;;5019387;28;20018;-60
2023/04/25 14:28:37;;;;;;;2.92;0.95;;;;;;;;;;5007621;28;20045;-58
2023/04/25 14:31:03;;;;;;;3.85;1.00;;;;;;;;;;5014501;28;20041;-61
2023/04/25 14:33:28;;;;;;;9.60;1.70;;;;;;;;;;5021161;28;20120;-62